WTB5TH LEPA-EDDS
Flight info
| Callsign | WTB5TH |
|---|---|
| Flight time | 1h 37m |
| Altitude | 36000 |
| Route | MEROS N853 LUMAS DCT MAXIR DCT LUSOL DCT BODRU DCT OKTET DCT IRMAR DCT KINES DCT VANAS DCT MOBLO DCT LAMUR DCT KORED DCT BERSU N871 DITON T163 ZUE T125 REUTL REUTL1W |
| Aircraft | A320/M-SDE3FGHIRWY/LB1 |
Departure
| Time | 2026-05-06 13:36 |
|---|---|
| Airport | Palma de Mallorca Airport (LEPA) |
Arrival
| Time | 2026-05-06 15:14 |
|---|---|
| Airport | Stuttgart Airport (EDDS) |
| Time | Latitude | Longitude | Altitude | Speed | Heading |
|---|---|---|---|---|---|
| 2026-05-06 12:56 | 39.54758 | 2.73632 | 39 ft | 0 kts | 58° |
| 2026-05-06 13:25 | 39.54752 | 2.73620 | 37 ft | 4 kts | 62° |
| 2026-05-06 13:25 | 39.54742 | 2.73588 | 37 ft | 4 kts | 81° |
| 2026-05-06 13:26 | 39.54743 | 2.73556 | 37 ft | 4 kts | 126° |
| 2026-05-06 13:26 | 39.54752 | 2.73545 | 36 ft | 1 kts | 149° |
| 2026-05-06 13:26 | 39.54754 | 2.73544 | 36 ft | 0 kts | 149° |
| 2026-05-06 13:30 | 39.54753 | 2.73544 | 36 ft | 1 kts | 149° |
| 2026-05-06 13:30 | 39.54733 | 2.73559 | 35 ft | 7 kts | 149° |
| 2026-05-06 13:30 | 39.54665 | 2.73611 | 38 ft | 12 kts | 151° |
| 2026-05-06 13:30 | 39.54597 | 2.73637 | 37 ft | 8 kts | 156° |
| 2026-05-06 13:31 | 39.54556 | 2.73629 | 37 ft | 5 kts | 222° |
| 2026-05-06 13:31 | 39.54532 | 2.73582 | 38 ft | 9 kts | 238° |
| 2026-05-06 13:31 | 39.54482 | 2.73479 | 38 ft | 17 kts | 238° |
| 2026-05-06 13:31 | 39.54420 | 2.73347 | 38 ft | 16 kts | 238° |
| 2026-05-06 13:32 | 39.54366 | 2.73233 | 38 ft | 14 kts | 238° |
| 2026-05-06 13:32 | 39.54317 | 2.73130 | 38 ft | 12 kts | 238° |
| 2026-05-06 13:32 | 39.54276 | 2.73042 | 38 ft | 11 kts | 238° |
| 2026-05-06 13:32 | 39.54238 | 2.72964 | 37 ft | 11 kts | 238° |
| 2026-05-06 13:33 | 39.54188 | 2.72915 | 38 ft | 8 kts | 179° |
| 2026-05-06 13:33 | 39.54155 | 2.72961 | 38 ft | 6 kts | 108° |
| 2026-05-06 13:33 | 39.54152 | 2.72987 | 38 ft | 0 kts | 95° |
| 2026-05-06 13:34 | 39.54151 | 2.73023 | 38 ft | 8 kts | 91° |
| 2026-05-06 13:34 | 39.54151 | 2.73115 | 38 ft | 9 kts | 89° |
| 2026-05-06 13:35 | 39.54152 | 2.73197 | 38 ft | 8 kts | 89° |
| 2026-05-06 13:35 | 39.54171 | 2.73268 | 38 ft | 9 kts | 58° |
| 2026-05-06 13:35 | 39.54216 | 2.73360 | 38 ft | 22 kts | 58° |
| 2026-05-06 13:35 | 39.54416 | 2.73782 | 38 ft | 88 kts | 58° |
| 2026-05-06 13:36 | 39.54839 | 2.74677 | 38 ft | 142 kts | 58° |
| 2026-05-06 13:36 | 39.55426 | 2.75904 | 275 ft | 167 kts | 59° |
| 2026-05-06 13:36 | 39.56038 | 2.77188 | 951 ft | 169 kts | 60° |
| 2026-05-06 13:36 | 39.56653 | 2.78512 | 1588 ft | 173 kts | 60° |
| 2026-05-06 13:37 | 39.57276 | 2.79854 | 2153 ft | 179 kts | 60° |
| 2026-05-06 13:37 | 39.57945 | 2.81308 | 2549 ft | 196 kts | 60° |
| 2026-05-06 13:37 | 39.58678 | 2.82887 | 2914 ft | 214 kts | 59° |
| 2026-05-06 13:37 | 39.59454 | 2.84540 | 3531 ft | 214 kts | 58° |
| 2026-05-06 13:38 | 39.60244 | 2.86223 | 4105 ft | 221 kts | 59° |
| 2026-05-06 13:38 | 39.61038 | 2.87982 | 4604 ft | 230 kts | 59° |
| 2026-05-06 13:38 | 39.61865 | 2.89801 | 5301 ft | 235 kts | 59° |
| 2026-05-06 13:38 | 39.62679 | 2.91609 | 5995 ft | 242 kts | 59° |
| 2026-05-06 13:39 | 39.63539 | 2.93602 | 6355 ft | 264 kts | 60° |
| 2026-05-06 13:39 | 39.64469 | 2.95772 | 6741 ft | 285 kts | 60° |
| 2026-05-06 13:39 | 39.65430 | 2.98034 | 7537 ft | 287 kts | 60° |
| 2026-05-06 13:39 | 39.66400 | 3.00321 | 8323 ft | 291 kts | 60° |
| 2026-05-06 13:40 | 39.67383 | 3.02641 | 9103 ft | 296 kts | 60° |
| 2026-05-06 13:40 | 39.68386 | 3.05003 | 9868 ft | 301 kts | 60° |
| 2026-05-06 13:40 | 39.69418 | 3.07424 | 10320 ft | 317 kts | 60° |
| 2026-05-06 13:40 | 39.70530 | 3.10018 | 10537 ft | 339 kts | 60° |
| 2026-05-06 13:41 | 39.71705 | 3.12744 | 11035 ft | 350 kts | 60° |
| 2026-05-06 13:41 | 39.72907 | 3.15522 | 11680 ft | 356 kts | 60° |
| 2026-05-06 13:41 | 39.74130 | 3.18356 | 12339 ft | 361 kts | 60° |
| 2026-05-06 13:41 | 39.75367 | 3.21232 | 12983 ft | 367 kts | 60° |
| 2026-05-06 13:42 | 39.76605 | 3.24118 | 13612 ft | 373 kts | 60° |
| 2026-05-06 13:42 | 39.78022 | 3.26960 | 14156 ft | 377 kts | 50° |
| 2026-05-06 13:42 | 39.79738 | 3.29562 | 14719 ft | 381 kts | 47° |
| 2026-05-06 13:42 | 39.81489 | 3.32175 | 15283 ft | 385 kts | 47° |
| 2026-05-06 13:43 | 39.83259 | 3.34823 | 15853 ft | 389 kts | 47° |
| 2026-05-06 13:43 | 39.85042 | 3.37494 | 16422 ft | 394 kts | 47° |
| 2026-05-06 13:43 | 39.86848 | 3.40206 | 16985 ft | 398 kts | 47° |
| 2026-05-06 13:43 | 39.88671 | 3.42948 | 17550 ft | 402 kts | 47° |
| 2026-05-06 13:44 | 39.90512 | 3.45718 | 18090 ft | 406 kts | 47° |
| 2026-05-06 13:44 | 39.92368 | 3.48516 | 18576 ft | 410 kts | 48° |
| 2026-05-06 13:44 | 39.94242 | 3.51344 | 19047 ft | 414 kts | 48° |
| 2026-05-06 13:44 | 39.96133 | 3.54199 | 19517 ft | 418 kts | 48° |
| 2026-05-06 13:45 | 39.97392 | 3.56105 | 19822 ft | 420 kts | 48° |
| 2026-05-06 13:45 | 40.01876 | 3.62894 | 20893 ft | 429 kts | 48° |
| 2026-05-06 13:45 | 40.03195 | 3.64890 | 21193 ft | 432 kts | 48° |
| 2026-05-06 13:46 | 40.05164 | 3.67867 | 21638 ft | 435 kts | 48° |
| 2026-05-06 13:46 | 40.07150 | 3.70869 | 22073 ft | 439 kts | 48° |
| 2026-05-06 13:46 | 40.09148 | 3.73903 | 22512 ft | 442 kts | 48° |
| 2026-05-06 13:46 | 40.11160 | 3.76968 | 22948 ft | 446 kts | 48° |
| 2026-05-06 13:47 | 40.13182 | 3.80057 | 23363 ft | 449 kts | 48° |
| 2026-05-06 13:47 | 40.15218 | 3.83169 | 23735 ft | 452 kts | 49° |
| 2026-05-06 13:47 | 40.17271 | 3.86300 | 24089 ft | 455 kts | 48° |
| 2026-05-06 13:47 | 40.19314 | 3.89408 | 24447 ft | 458 kts | 48° |
| 2026-05-06 13:48 | 40.21398 | 3.92580 | 24784 ft | 461 kts | 48° |
| 2026-05-06 13:48 | 40.23490 | 3.95777 | 25119 ft | 463 kts | 48° |
| 2026-05-06 13:48 | 40.25589 | 3.98995 | 25462 ft | 466 kts | 48° |
| 2026-05-06 13:48 | 40.27694 | 4.02233 | 25806 ft | 468 kts | 49° |
| 2026-05-06 13:49 | 40.29812 | 4.05491 | 26133 ft | 471 kts | 48° |
| 2026-05-06 13:49 | 40.31943 | 4.08768 | 26462 ft | 474 kts | 48° |
| 2026-05-06 13:49 | 40.34086 | 4.12061 | 26787 ft | 476 kts | 48° |
| 2026-05-06 13:49 | 40.36239 | 4.15367 | 27114 ft | 478 kts | 48° |
| 2026-05-06 13:50 | 40.38409 | 4.18702 | 27442 ft | 481 kts | 48° |
| 2026-05-06 13:50 | 40.40579 | 4.22052 | 27784 ft | 483 kts | 49° |
| 2026-05-06 13:50 | 40.42761 | 4.25429 | 28066 ft | 486 kts | 49° |
| 2026-05-06 13:50 | 40.44957 | 4.28817 | 28362 ft | 489 kts | 47° |
| 2026-05-06 13:51 | 40.47375 | 4.31969 | 28662 ft | 489 kts | 38° |
| 2026-05-06 13:51 | 40.50114 | 4.34599 | 28960 ft | 488 kts | 28° |
| 2026-05-06 13:51 | 40.53116 | 4.36652 | 29250 ft | 485 kts | 18° |
| 2026-05-06 13:51 | 40.56293 | 4.38080 | 29538 ft | 481 kts | 9° |
| 2026-05-06 13:52 | 40.59568 | 4.38945 | 29820 ft | 480 kts | 4° |
| 2026-05-06 13:52 | 40.62863 | 4.39722 | 30087 ft | 482 kts | 5° |
| 2026-05-06 13:52 | 40.66171 | 4.40511 | 30321 ft | 484 kts | 5° |
| 2026-05-06 13:52 | 40.69492 | 4.41307 | 30559 ft | 486 kts | 5° |
| 2026-05-06 13:53 | 40.72825 | 4.42110 | 30786 ft | 488 kts | 5° |
| 2026-05-06 13:53 | 40.76175 | 4.42917 | 31037 ft | 489 kts | 5° |
| 2026-05-06 13:53 | 40.79515 | 4.43721 | 31372 ft | 488 kts | 5° |
| 2026-05-06 13:53 | 40.82851 | 4.44524 | 31728 ft | 487 kts | 4° |
| 2026-05-06 13:54 | 40.86187 | 4.45331 | 32010 ft | 487 kts | 4° |
| 2026-05-06 13:54 | 40.89521 | 4.46140 | 32325 ft | 487 kts | 4° |
| 2026-05-06 13:54 | 40.92851 | 4.46948 | 32641 ft | 486 kts | 4° |
| 2026-05-06 13:54 | 40.96138 | 4.47747 | 32954 ft | 486 kts | 4° |
| 2026-05-06 13:55 | 40.99461 | 4.48554 | 33271 ft | 485 kts | 4° |
| 2026-05-06 13:55 | 41.02780 | 4.49359 | 33586 ft | 485 kts | 4° |
| 2026-05-06 13:55 | 41.06098 | 4.50164 | 33918 ft | 485 kts | 4° |
| 2026-05-06 13:55 | 41.09416 | 4.50966 | 34166 ft | 485 kts | 4° |
| 2026-05-06 13:56 | 41.12740 | 4.51771 | 34421 ft | 485 kts | 4° |
| 2026-05-06 13:56 | 41.16060 | 4.52577 | 34680 ft | 485 kts | 4° |
| 2026-05-06 13:56 | 41.19377 | 4.53388 | 34921 ft | 484 kts | 4° |
| 2026-05-06 13:56 | 41.22690 | 4.54197 | 35177 ft | 484 kts | 4° |
| 2026-05-06 13:57 | 41.26010 | 4.55008 | 35440 ft | 483 kts | 4° |
| 2026-05-06 13:57 | 41.29270 | 4.55804 | 35652 ft | 483 kts | 4° |
| 2026-05-06 13:57 | 41.32575 | 4.56614 | 35862 ft | 483 kts | 4° |
| 2026-05-06 13:57 | 41.35880 | 4.57426 | 35941 ft | 482 kts | 4° |
| 2026-05-06 13:58 | 41.42458 | 4.59041 | 35967 ft | 480 kts | 4° |
| 2026-05-06 13:58 | 41.49015 | 4.60651 | 35981 ft | 480 kts | 4° |
| 2026-05-06 13:59 | 41.55582 | 4.62271 | 35967 ft | 480 kts | 5° |
| 2026-05-06 13:59 | 41.62156 | 4.63901 | 35967 ft | 480 kts | 4° |
| 2026-05-06 14:00 | 41.68728 | 4.65518 | 35993 ft | 480 kts | 4° |
| 2026-05-06 14:00 | 41.75147 | 4.68243 | 35975 ft | 491 kts | 22° |
| 2026-05-06 14:01 | 41.81069 | 4.72869 | 35961 ft | 494 kts | 27° |
| 2026-05-06 14:01 | 41.86967 | 4.77614 | 35956 ft | 494 kts | 27° |
| 2026-05-06 14:02 | 41.92864 | 4.82364 | 35966 ft | 495 kts | 27° |
| 2026-05-06 14:02 | 41.98768 | 4.87133 | 35957 ft | 495 kts | 28° |
| 2026-05-06 14:03 | 42.04670 | 4.91908 | 35955 ft | 495 kts | 28° |
| 2026-05-06 14:03 | 42.10571 | 4.96688 | 35961 ft | 495 kts | 28° |
| 2026-05-06 14:04 | 42.16472 | 5.01493 | 35950 ft | 496 kts | 28° |
| 2026-05-06 14:04 | 42.22380 | 5.06325 | 35948 ft | 496 kts | 28° |
| 2026-05-06 14:05 | 42.28259 | 5.11121 | 35949 ft | 497 kts | 28° |
| 2026-05-06 14:05 | 42.34175 | 5.15945 | 35962 ft | 497 kts | 28° |
| 2026-05-06 14:06 | 42.40088 | 5.20788 | 35956 ft | 497 kts | 28° |
| 2026-05-06 14:06 | 42.45999 | 5.25657 | 35954 ft | 497 kts | 28° |
| 2026-05-06 14:07 | 42.51909 | 5.30529 | 35978 ft | 497 kts | 28° |
| 2026-05-06 14:07 | 42.57820 | 5.35407 | 35940 ft | 497 kts | 28° |
| 2026-05-06 14:08 | 42.63720 | 5.40291 | 35939 ft | 497 kts | 28° |
| 2026-05-06 14:08 | 42.69625 | 5.45196 | 35941 ft | 497 kts | 28° |
| 2026-05-06 14:09 | 42.75532 | 5.50106 | 35937 ft | 498 kts | 28° |
| 2026-05-06 14:09 | 42.81439 | 5.55025 | 35938 ft | 498 kts | 28° |
| 2026-05-06 14:10 | 42.87342 | 5.59962 | 35932 ft | 498 kts | 28° |
| 2026-05-06 14:10 | 42.93202 | 5.64872 | 35954 ft | 497 kts | 28° |
| 2026-05-06 14:11 | 42.99097 | 5.69813 | 35946 ft | 497 kts | 28° |
| 2026-05-06 14:11 | 43.04990 | 5.74756 | 35914 ft | 497 kts | 29° |
| 2026-05-06 14:12 | 43.10881 | 5.79724 | 35934 ft | 497 kts | 29° |
| 2026-05-06 14:12 | 43.16770 | 5.84703 | 35926 ft | 497 kts | 29° |
| 2026-05-06 14:13 | 43.22665 | 5.89690 | 35919 ft | 497 kts | 29° |
| 2026-05-06 14:13 | 43.28546 | 5.94677 | 35938 ft | 497 kts | 29° |
| 2026-05-06 14:14 | 43.34388 | 5.99651 | 35918 ft | 497 kts | 29° |
| 2026-05-06 14:14 | 43.40624 | 6.03489 | 35899 ft | 487 kts | 10° |
| 2026-05-06 14:15 | 43.47239 | 6.04844 | 35909 ft | 478 kts | 358° |
| 2026-05-06 14:15 | 43.53871 | 6.05499 | 35894 ft | 478 kts | 358° |
| 2026-05-06 14:16 | 43.60517 | 6.06168 | 35882 ft | 478 kts | 358° |
| 2026-05-06 14:16 | 43.67152 | 6.06836 | 35899 ft | 478 kts | 359° |
| 2026-05-06 14:17 | 43.73789 | 6.07548 | 35889 ft | 480 kts | 2° |
| 2026-05-06 14:17 | 43.80285 | 6.09991 | 35854 ft | 490 kts | 21° |
| 2026-05-06 14:18 | 43.86425 | 6.14176 | 35876 ft | 492 kts | 23° |
| 2026-05-06 14:18 | 43.92533 | 6.18344 | 35884 ft | 492 kts | 23° |
| 2026-05-06 14:19 | 43.98689 | 6.22535 | 35883 ft | 493 kts | 23° |
| 2026-05-06 14:19 | 44.04844 | 6.26741 | 35876 ft | 493 kts | 23° |
| 2026-05-06 14:20 | 44.11008 | 6.30974 | 35902 ft | 493 kts | 24° |
| 2026-05-06 14:20 | 44.17155 | 6.35214 | 35902 ft | 493 kts | 24° |
| 2026-05-06 14:21 | 44.23264 | 6.39442 | 35901 ft | 493 kts | 24° |
| 2026-05-06 14:21 | 44.29410 | 6.43681 | 35918 ft | 492 kts | 24° |
| 2026-05-06 14:22 | 44.35555 | 6.47927 | 35864 ft | 492 kts | 24° |
| 2026-05-06 14:22 | 44.41704 | 6.52192 | 35885 ft | 494 kts | 24° |
| 2026-05-06 14:23 | 44.47849 | 6.56479 | 35890 ft | 493 kts | 24° |
| 2026-05-06 14:23 | 44.53989 | 6.60765 | 35886 ft | 493 kts | 24° |
| 2026-05-06 14:24 | 44.60125 | 6.65057 | 35901 ft | 493 kts | 24° |
| 2026-05-06 14:24 | 44.66216 | 6.69329 | 35873 ft | 493 kts | 24° |
| 2026-05-06 14:25 | 44.72340 | 6.73639 | 35869 ft | 492 kts | 24° |
| 2026-05-06 14:25 | 44.78604 | 6.77406 | 35860 ft | 487 kts | 11° |
| 2026-05-06 14:26 | 44.85240 | 6.78678 | 35868 ft | 476 kts | 354° |
| 2026-05-06 14:26 | 44.91834 | 6.78260 | 35861 ft | 474 kts | 352° |
| 2026-05-06 14:27 | 44.98421 | 6.77831 | 35857 ft | 474 kts | 352° |
| 2026-05-06 14:27 | 45.05019 | 6.77401 | 35875 ft | 474 kts | 352° |
| 2026-05-06 14:28 | 45.11577 | 6.76967 | 35882 ft | 475 kts | 352° |
| 2026-05-06 14:28 | 45.18175 | 6.76522 | 35893 ft | 475 kts | 352° |
| 2026-05-06 14:29 | 45.24778 | 6.76084 | 35916 ft | 475 kts | 353° |
| 2026-05-06 14:29 | 45.31376 | 6.75650 | 35919 ft | 475 kts | 352° |
| 2026-05-06 14:30 | 45.37972 | 6.75207 | 35937 ft | 475 kts | 352° |
| 2026-05-06 14:30 | 45.44580 | 6.74763 | 35929 ft | 475 kts | 352° |
| 2026-05-06 14:31 | 45.51148 | 6.74330 | 35929 ft | 475 kts | 353° |
| 2026-05-06 14:31 | 45.57753 | 6.73864 | 35943 ft | 475 kts | 353° |
| 2026-05-06 14:32 | 45.64347 | 6.73389 | 35947 ft | 474 kts | 353° |
| 2026-05-06 14:32 | 45.70939 | 6.72931 | 35947 ft | 474 kts | 353° |
| 2026-05-06 14:33 | 45.77525 | 6.72595 | 35956 ft | 476 kts | 359° |
| 2026-05-06 14:33 | 45.83029 | 6.73905 | 35950 ft | 482 kts | 15° |
| 2026-05-06 14:34 | 45.89217 | 6.77635 | 35934 ft | 483 kts | 22° |
| 2026-05-06 14:34 | 45.95298 | 6.81621 | 35922 ft | 484 kts | 23° |
| 2026-05-06 14:35 | 46.01426 | 6.85630 | 35920 ft | 484 kts | 23° |
| 2026-05-06 14:35 | 46.07551 | 6.89652 | 35914 ft | 484 kts | 23° |
| 2026-05-06 14:36 | 46.13668 | 6.93683 | 35909 ft | 484 kts | 23° |
| 2026-05-06 14:36 | 46.19792 | 6.97725 | 35917 ft | 484 kts | 23° |
| 2026-05-06 14:37 | 46.25916 | 7.01764 | 35914 ft | 484 kts | 23° |
| 2026-05-06 14:37 | 46.32043 | 7.05817 | 35911 ft | 484 kts | 23° |
| 2026-05-06 14:38 | 46.38163 | 7.09886 | 35915 ft | 484 kts | 24° |
| 2026-05-06 14:38 | 46.44274 | 7.13974 | 35915 ft | 484 kts | 24° |
| 2026-05-06 14:39 | 46.50388 | 7.18072 | 35912 ft | 484 kts | 24° |
| 2026-05-06 14:39 | 46.56467 | 7.22143 | 35908 ft | 484 kts | 24° |
| 2026-05-06 14:40 | 46.62573 | 7.26231 | 35903 ft | 483 kts | 23° |
| 2026-05-06 14:40 | 46.68684 | 7.30336 | 35893 ft | 483 kts | 24° |
| 2026-05-06 14:41 | 46.74790 | 7.34454 | 35877 ft | 483 kts | 24° |
| 2026-05-06 14:41 | 46.80897 | 7.38614 | 35876 ft | 484 kts | 26° |
| 2026-05-06 14:42 | 46.86335 | 7.44241 | 35875 ft | 484 kts | 45° |
| 2026-05-06 14:42 | 46.90685 | 7.51774 | 35883 ft | 482 kts | 53° |
| 2026-05-06 14:43 | 46.94833 | 7.59409 | 35894 ft | 482 kts | 53° |
| 2026-05-06 14:43 | 46.99009 | 7.67096 | 35900 ft | 482 kts | 53° |
| 2026-05-06 14:44 | 47.03200 | 7.74847 | 35903 ft | 482 kts | 53° |
| 2026-05-06 14:45 | 47.09385 | 7.86353 | 35889 ft | 481 kts | 53° |
| 2026-05-06 14:45 | 47.13499 | 7.94091 | 35887 ft | 479 kts | 57° |
| 2026-05-06 14:46 | 47.17069 | 8.02336 | 35883 ft | 478 kts | 60° |
| 2026-05-06 14:46 | 47.20598 | 8.10616 | 35876 ft | 478 kts | 60° |
| 2026-05-06 14:47 | 47.24123 | 8.18895 | 35875 ft | 478 kts | 60° |
| 2026-05-06 14:47 | 47.27641 | 8.27192 | 35857 ft | 477 kts | 60° |
| 2026-05-06 14:47 | 47.29398 | 8.31337 | 35376 ft | 477 kts | 59° |
| 2026-05-06 14:48 | 47.31379 | 8.35244 | 34855 ft | 476 kts | 50° |
| 2026-05-06 14:48 | 47.33579 | 8.38891 | 34370 ft | 474 kts | 50° |
| 2026-05-06 14:48 | 47.35765 | 8.42501 | 33921 ft | 471 kts | 50° |
| 2026-05-06 14:48 | 47.37935 | 8.46096 | 33424 ft | 467 kts | 50° |
| 2026-05-06 14:49 | 47.40086 | 8.49672 | 32915 ft | 464 kts | 50° |
| 2026-05-06 14:49 | 47.42216 | 8.53225 | 32425 ft | 461 kts | 50° |
| 2026-05-06 14:49 | 47.44331 | 8.56756 | 31944 ft | 457 kts | 50° |
| 2026-05-06 14:49 | 47.46432 | 8.60271 | 31483 ft | 454 kts | 51° |
| 2026-05-06 14:50 | 47.48515 | 8.63764 | 31045 ft | 451 kts | 51° |
| 2026-05-06 14:50 | 47.50582 | 8.67232 | 30625 ft | 447 kts | 51° |
| 2026-05-06 14:50 | 47.52602 | 8.70620 | 30196 ft | 443 kts | 51° |
| 2026-05-06 14:50 | 47.54662 | 8.74077 | 29716 ft | 440 kts | 51° |
| 2026-05-06 14:51 | 47.56653 | 8.77420 | 29247 ft | 436 kts | 51° |
| 2026-05-06 14:51 | 47.58634 | 8.80774 | 28784 ft | 430 kts | 53° |
| 2026-05-06 14:51 | 47.60331 | 8.84376 | 28256 ft | 423 kts | 62° |
| 2026-05-06 14:51 | 47.61871 | 8.88088 | 27773 ft | 421 kts | 62° |
| 2026-05-06 14:52 | 47.63401 | 8.91765 | 27316 ft | 416 kts | 62° |
| 2026-05-06 14:52 | 47.64918 | 8.95399 | 26883 ft | 412 kts | 62° |
| 2026-05-06 14:52 | 47.66417 | 8.98984 | 26455 ft | 407 kts | 62° |
| 2026-05-06 14:52 | 47.67898 | 9.02530 | 26095 ft | 401 kts | 62° |
| 2026-05-06 14:53 | 47.69351 | 9.06028 | 25698 ft | 396 kts | 62° |
| 2026-05-06 14:53 | 47.70783 | 9.09483 | 25313 ft | 391 kts | 62° |
| 2026-05-06 14:53 | 47.72201 | 9.12907 | 24925 ft | 387 kts | 62° |
| 2026-05-06 14:53 | 47.73604 | 9.16300 | 24538 ft | 383 kts | 62° |
| 2026-05-06 14:54 | 47.74985 | 9.19656 | 24153 ft | 378 kts | 63° |
| 2026-05-06 14:54 | 47.76175 | 9.23104 | 23783 ft | 372 kts | 68° |
| 2026-05-06 14:54 | 47.77256 | 9.26568 | 23440 ft | 368 kts | 69° |
| 2026-05-06 14:54 | 47.78320 | 9.30016 | 23018 ft | 365 kts | 69° |
| 2026-05-06 14:55 | 47.79382 | 9.33437 | 22467 ft | 365 kts | 69° |
| 2026-05-06 14:55 | 47.80452 | 9.36857 | 21991 ft | 365 kts | 69° |
| 2026-05-06 14:55 | 47.81516 | 9.40268 | 21801 ft | 364 kts | 69° |
| 2026-05-06 14:55 | 47.82580 | 9.43682 | 21832 ft | 365 kts | 69° |
| 2026-05-06 14:56 | 47.83650 | 9.47123 | 21826 ft | 365 kts | 69° |
| 2026-05-06 14:56 | 47.84689 | 9.50560 | 21822 ft | 364 kts | 69° |
| 2026-05-06 14:56 | 47.85722 | 9.53995 | 21825 ft | 364 kts | 69° |
| 2026-05-06 14:56 | 47.86754 | 9.57438 | 21824 ft | 363 kts | 69° |
| 2026-05-06 14:57 | 47.87781 | 9.60878 | 21822 ft | 364 kts | 69° |
| 2026-05-06 14:57 | 47.88928 | 9.64237 | 21818 ft | 366 kts | 57° |
| 2026-05-06 14:57 | 47.90725 | 9.66919 | 21820 ft | 370 kts | 34° |
| 2026-05-06 14:57 | 47.93058 | 9.68526 | 21818 ft | 372 kts | 17° |
| 2026-05-06 14:58 | 47.95551 | 9.69536 | 21701 ft | 370 kts | 14° |
| 2026-05-06 14:58 | 47.98043 | 9.70479 | 21219 ft | 368 kts | 14° |
| 2026-05-06 14:58 | 48.00538 | 9.71296 | 20775 ft | 366 kts | 7° |
| 2026-05-06 14:58 | 48.03065 | 9.71686 | 20362 ft | 364 kts | 4° |
| 2026-05-06 14:59 | 48.05549 | 9.71998 | 19985 ft | 361 kts | 4° |
| 2026-05-06 14:59 | 48.08042 | 9.72302 | 19600 ft | 358 kts | 4° |
| 2026-05-06 14:59 | 48.10518 | 9.72603 | 19218 ft | 356 kts | 4° |
| 2026-05-06 14:59 | 48.12980 | 9.72902 | 18843 ft | 354 kts | 4° |
| 2026-05-06 15:00 | 48.15430 | 9.73199 | 18472 ft | 352 kts | 4° |
| 2026-05-06 15:00 | 48.17867 | 9.73492 | 18150 ft | 351 kts | 4° |
| 2026-05-06 15:00 | 48.20296 | 9.73781 | 17786 ft | 349 kts | 4° |
| 2026-05-06 15:00 | 48.22708 | 9.74035 | 17388 ft | 346 kts | 359° |
| 2026-05-06 15:01 | 48.25108 | 9.73864 | 16995 ft | 344 kts | 354° |
| 2026-05-06 15:01 | 48.27494 | 9.73607 | 16619 ft | 343 kts | 354° |
| 2026-05-06 15:01 | 48.29866 | 9.73346 | 16262 ft | 341 kts | 354° |
| 2026-05-06 15:01 | 48.32227 | 9.73082 | 15924 ft | 339 kts | 354° |
| 2026-05-06 15:02 | 48.34569 | 9.72818 | 15544 ft | 335 kts | 354° |
| 2026-05-06 15:02 | 48.36892 | 9.72549 | 14932 ft | 332 kts | 354° |
| 2026-05-06 15:02 | 48.39188 | 9.72281 | 14356 ft | 329 kts | 354° |
| 2026-05-06 15:02 | 48.41428 | 9.72013 | 13802 ft | 326 kts | 354° |
| 2026-05-06 15:03 | 48.43705 | 9.71735 | 13184 ft | 323 kts | 354° |
| 2026-05-06 15:03 | 48.45930 | 9.71459 | 12572 ft | 319 kts | 354° |
| 2026-05-06 15:03 | 48.48107 | 9.71322 | 11973 ft | 316 kts | 1° |
| 2026-05-06 15:03 | 48.50293 | 9.71534 | 11374 ft | 312 kts | 4° |
| 2026-05-06 15:04 | 48.52447 | 9.71794 | 10785 ft | 309 kts | 4° |
| 2026-05-06 15:04 | 48.54575 | 9.72057 | 10199 ft | 306 kts | 4° |
| 2026-05-06 15:04 | 48.56680 | 9.72322 | 9652 ft | 301 kts | 4° |
| 2026-05-06 15:04 | 48.58750 | 9.72584 | 9056 ft | 297 kts | 4° |
| 2026-05-06 15:05 | 48.60799 | 9.72856 | 8414 ft | 293 kts | 4° |
| 2026-05-06 15:05 | 48.62823 | 9.73138 | 7768 ft | 291 kts | 4° |
| 2026-05-06 15:05 | 48.64823 | 9.73418 | 7157 ft | 287 kts | 4° |
| 2026-05-06 15:05 | 48.66795 | 9.73704 | 6558 ft | 283 kts | 4° |
| 2026-05-06 15:06 | 48.68727 | 9.73596 | 5965 ft | 274 kts | 341° |
| 2026-05-06 15:06 | 48.70415 | 9.72382 | 5335 ft | 266 kts | 327° |
| 2026-05-06 15:06 | 48.71973 | 9.70857 | 4907 ft | 263 kts | 324° |
| 2026-05-06 15:06 | 48.73454 | 9.69371 | 4879 ft | 246 kts | 324° |
| 2026-05-06 15:07 | 48.74800 | 9.67924 | 4891 ft | 229 kts | 316° |
| 2026-05-06 15:07 | 48.75767 | 9.66137 | 4895 ft | 212 kts | 297° |
| 2026-05-06 15:07 | 48.76275 | 9.64137 | 4898 ft | 198 kts | 280° |
| 2026-05-06 15:07 | 48.76367 | 9.62076 | 4897 ft | 196 kts | 264° |
| 2026-05-06 15:08 | 48.76079 | 9.60067 | 4901 ft | 196 kts | 254° |
| 2026-05-06 15:08 | 48.75710 | 9.58079 | 4901 ft | 195 kts | 254° |
| 2026-05-06 15:08 | 48.75345 | 9.56110 | 4899 ft | 194 kts | 254° |
| 2026-05-06 15:08 | 48.74978 | 9.54135 | 4903 ft | 195 kts | 254° |
| 2026-05-06 15:09 | 48.74611 | 9.52158 | 4859 ft | 196 kts | 255° |
| 2026-05-06 15:09 | 48.74245 | 9.50194 | 4686 ft | 190 kts | 254° |
| 2026-05-06 15:09 | 48.73891 | 9.48295 | 4442 ft | 185 kts | 254° |
| 2026-05-06 15:09 | 48.73546 | 9.46447 | 4200 ft | 180 kts | 255° |
| 2026-05-06 15:10 | 48.73209 | 9.44647 | 3958 ft | 177 kts | 254° |
| 2026-05-06 15:10 | 48.72888 | 9.42930 | 3725 ft | 169 kts | 255° |
| 2026-05-06 15:10 | 48.72581 | 9.41290 | 3524 ft | 155 kts | 254° |
| 2026-05-06 15:10 | 48.72295 | 9.39763 | 3311 ft | 147 kts | 255° |
| 2026-05-06 15:11 | 48.72021 | 9.38304 | 3141 ft | 140 kts | 255° |
| 2026-05-06 15:11 | 48.71761 | 9.36914 | 2910 ft | 138 kts | 254° |
| 2026-05-06 15:11 | 48.71498 | 9.35530 | 2695 ft | 135 kts | 253° |
| 2026-05-06 15:11 | 48.71242 | 9.34169 | 2552 ft | 133 kts | 255° |
| 2026-05-06 15:12 | 48.70981 | 9.32819 | 2458 ft | 134 kts | 255° |
| 2026-05-06 15:12 | 48.70726 | 9.31453 | 2317 ft | 137 kts | 255° |
| 2026-05-06 15:12 | 48.70478 | 9.30056 | 2136 ft | 138 kts | 253° |
| 2026-05-06 15:12 | 48.70219 | 9.28643 | 1971 ft | 140 kts | 253° |
| 2026-05-06 15:13 | 48.69933 | 9.27236 | 1746 ft | 140 kts | 253° |
| 2026-05-06 15:13 | 48.69670 | 9.25810 | 1485 ft | 140 kts | 253° |
| 2026-05-06 15:13 | 48.69408 | 9.24413 | 1333 ft | 136 kts | 253° |
| 2026-05-06 15:13 | 48.69161 | 9.23120 | 1288 ft | 114 kts | 255° |
| 2026-05-06 15:14 | 48.68988 | 9.22211 | 1287 ft | 65 kts | 254° |
| 2026-05-06 15:14 | 48.68901 | 9.21750 | 1289 ft | 37 kts | 254° |
| 2026-05-06 15:14 | 48.68845 | 9.21447 | 1290 ft | 17 kts | 254° |
| 2026-05-06 15:14 | 48.68823 | 9.21286 | 1285 ft | 17 kts | 264° |
| 2026-05-06 15:15 | 48.68820 | 9.21110 | 1285 ft | 17 kts | 274° |
| 2026-05-06 15:15 | 48.68841 | 9.20949 | 1285 ft | 12 kts | 284° |
| 2026-05-06 15:15 | 48.68862 | 9.20821 | 1288 ft | 13 kts | 284° |
| 2026-05-06 15:15 | 48.68908 | 9.20709 | 1288 ft | 13 kts | 312° |
| 2026-05-06 15:16 | 48.68968 | 9.20619 | 1287 ft | 11 kts | 315° |
| 2026-05-06 15:16 | 48.69001 | 9.20568 | 1288 ft | 10 kts | 314° |
| 2026-05-06 15:16 | 48.69039 | 9.20509 | 1288 ft | 7 kts | 314° |
| 2026-05-06 15:16 | 48.69056 | 9.20408 | 1286 ft | 9 kts | 249° |
| 2026-05-06 15:17 | 48.69038 | 9.20336 | 1287 ft | 3 kts | 226° |
| 2026-05-06 15:17 | 48.69030 | 9.20335 | 1286 ft | 1 kts | 192° |
| 2026-05-06 15:17 | 48.69000 | 9.20343 | 1290 ft | 6 kts | 161° |
| 2026-05-06 15:17 | 48.68980 | 9.20353 | 1286 ft | 4 kts | 163° |
| 2026-05-06 15:18 | 48.68973 | 9.20356 | 1289 ft | 0 kts | 163° |